Time;durP1;ratioP1;P1;durP2;ratioP2;P2;SDS_P1;SDS_P2;PMS_P1;PMS_P2;Temp;Humidity;BMP_temperature;BMP_pressure;BME280_temperature;BME280_humidity;BME280_pressure;Samples;Min_cycle;Max_cycle;Signal;HPM_P1;HPM_P2
2023/10/29 00:03:08;;;;;;;1.85;1.17;;;13.00;93.50;;;;;;9163282;19;20018;-77
2023/10/29 00:06:23;;;;;;;4.15;1.65;;;14.10;94.70;;;;;;9158675;19;20093;-76
2023/10/29 00:09:28;;;;;;;4.25;1.48;;;13.00;95.50;;;;;;9166517;19;20010;-77
2023/10/29 00:12:37;;;;;;;4.10;1.58;;;13.10;94.10;;;;;;9162451;19;20454;-77
2023/10/29 00:15:43;;;;;;;2.22;1.23;;;12.90;94.00;;;;;;9159178;19;20041;-77
2023/10/29 00:18:51;;;;;;;3.83;1.60;;;13.00;94.00;;;;;;9158027;19;20013;-77
2023/10/29 00:22:00;;;;;;;3.60;1.67;;;12.90;94.10;;;;;;9160842;19;20947;-76
2023/10/29 00:25:08;;;;;;;5.97;1.40;;;13.00;94.40;;;;;;9161090;19;20443;-77
2023/10/29 00:28:15;;;;;;;7.07;1.40;;;13.00;94.40;;;;;;9159647;19;20858;-75
2023/10/29 00:31:26;;;;;;;5.13;1.35;;;13.00;94.10;;;;;;9155534;19;20113;-75
2023/10/29 00:34:32;;;;;;;1.85;1.08;;;13.00;94.10;;;;;;9162267;19;20454;-76
2023/10/29 00:37:48;;;;;;;2.40;1.20;;;13.00;94.40;;;;;;9160604;19;20011;-76
2023/10/29 00:40:54;;;;;;;6.32;2.17;;;13.00;94.40;;;;;;9161563;19;20025;-78
2023/10/29 00:44:02;;;;;;;4.60;1.58;;;13.00;94.40;;;;;;9158946;19;20014;-75
2023/10/29 00:47:08;;;;;;;3.35;1.42;;;13.10;94.10;;;;;;9160693;19;20025;-77
2023/10/29 00:50:19;;;;;;;4.93;1.52;;;13.30;94.30;;;;;;9157656;19;20013;-76
2023/10/29 00:53:27;;;;;;;2.90;1.70;;;13.10;94.10;;;;;;9159587;19;20026;-76
2023/10/29 00:56:36;;;;;;;3.92;1.30;;;13.10;94.10;;;;;;9162088;19;20025;-76
2023/10/29 00:59:47;;;;;;;3.15;1.67;;;13.20;94.30;;;;;;9157989;19;20011;-76
2023/10/29 01:02:55;;;;;;;4.55;1.45;;;13.20;94.30;;;;;;9156889;19;20764;-75
2023/10/29 01:06:04;;;;;;;4.20;1.40;;;13.30;94.10;;;;;;9159112;19;20770;-76
2023/10/29 01:09:19;;;;;;;3.88;1.48;;;13.20;94.00;;;;;;9158982;19;20342;-77
2023/10/29 01:12:27;;;;;;;3.67;1.10;;;13.40;94.60;;;;;;9156618;19;20015;-76
2023/10/29 01:15:35;;;;;;;3.70;1.60;;;13.30;94.90;;;;;;9157223;19;20010;-76
2023/10/29 01:18:41;;;;;;;4.10;1.60;;;13.30;96.40;;;;;;9155621;19;20014;-76
2023/10/29 01:21:48;;;;;;;5.40;1.60;;;13.30;93.80;;;;;;9158717;19;20018;-76
2023/10/29 01:25:07;;;;;;;2.72;1.20;;;13.40;93.90;;;;;;9158212;19;20078;-77
2023/10/29 01:28:14;;;;;;;4.93;1.40;;;13.40;94.00;;;;;;9157043;19;20098;-75
2023/10/29 01:31:20;;;;;;;3.17;1.30;;;13.40;93.90;;;;;;9154535;19;20014;-74
2023/10/29 01:34:28;;;;;;;5.13;1.02;;;13.40;94.10;;;;;;9156666;19;20134;-77
2023/10/29 01:37:33;;;;;;;4.75;1.65;;;13.50;94.10;;;;;;9157622;19;20021;-75
2023/10/29 01:40:43;;;;;;;4.82;1.17;;;13.50;94.20;;;;;;9158046;19;20057;-75
2023/10/29 01:44:00;;;;;;;4.38;1.25;;;13.50;94.10;;;;;;9156033;19;20015;-75
2023/10/29 01:47:11;;;;;;;3.33;1.23;;;13.50;94.30;;;;;;9156554;19;21075;-75
2023/10/29 01:50:17;;;;;;;5.30;1.17;;;13.50;94.40;;;;;;9158189;19;20051;-75
2023/10/29 01:53:27;;;;;;;3.97;1.58;;;13.60;94.80;;;;;;9156338;19;20459;-75
2023/10/29 01:56:36;;;;;;;7.20;1.20;;;13.60;95.10;;;;;;9155325;19;20054;-75
2023/10/29 01:59:47;;;;;;;6.25;1.13;;;13.60;95.90;;;;;;9154160;19;20384;-75
2023/10/29 02:02:56;;;;;;;2.92;1.13;;;12.80;96.90;;;;;;9156283;19;20018;-75
2023/10/29 02:06:07;;;;;;;4.38;1.48;;;13.60;95.10;;;;;;9157574;19;20348;-75
2023/10/29 02:09:16;;;;;;;4.38;1.17;;;13.60;95.10;;;;;;9156361;19;20014;-75
2023/10/29 02:12:29;;;;;;;2.83;1.13;;;13.60;94.80;;;;;;9158356;19;20019;-74
2023/10/29 02:15:34;;;;;;;5.18;1.27;;;13.60;95.00;;;;;;9157471;19;20018;-73
2023/10/29 02:18:45;;;;;;;5.07;1.15;;;13.60;95.10;;;;;;9154091;19;20020;-74
2023/10/29 02:21:51;;;;;;;2.70;1.25;;;13.70;95.10;;;;;;9158326;19;20021;-74
2023/10/29 02:25:01;;;;;;;3.40;1.08;;;13.70;94.90;;;;;;9155245;19;20353;-75
2023/10/29 02:28:07;;;;;;;9.10;1.70;;;13.60;94.70;;;;;;9162505;19;20006;-74
2023/10/29 02:31:19;;;;;;;2.70;1.40;;;13.70;94.60;;;;;;9159704;19;20022;-75
2023/10/29 02:34:25;;;;;;;5.85;1.45;;;13.80;94.50;;;;;;9166314;19;20818;-73
2023/10/29 02:37:33;;;;;;;2.88;1.00;;;13.70;94.60;;;;;;9166143;19;20019;-73
2023/10/29 02:40:46;;;;;;;2.55;1.10;;;13.80;94.60;;;;;;9167137;19;20030;-73
2023/10/29 02:43:58;;;;;;;8.20;1.27;;;13.80;94.30;;;;;;9164710;19;20030;-73
2023/10/29 02:47:03;;;;;;;5.35;1.63;;;13.80;94.60;;;;;;9165779;19;20014;-74
2023/10/29 02:50:11;;;;;;;4.95;1.35;;;13.70;94.40;;;;;;9165594;19;20021;-74
2023/10/29 02:53:17;;;;;;;3.22;1.00;;;13.80;94.30;;;;;;9163175;19;20523;-74
2023/10/29 02:56:37;;;;;;;5.70;1.20;;;13.80;94.30;;;;;;9163289;19;20045;-74
2023/10/29 02:59:43;;;;;;;5.80;1.27;;;13.80;94.60;;;;;;9162149;19;20014;-73
2023/10/29 03:02:50;;;;;;;3.05;1.20;;;13.90;94.40;;;;;;9163856;19;20014;-73
2023/10/29 03:06:00;;;;;;;4.15;1.40;;;13.80;94.40;;;;;;9163928;19;20010;-72
2023/10/29 03:09:08;;;;;;;2.72;1.02;;;13.90;94.40;;;;;;9164352;19;20112;-73
2023/10/29 03:12:16;;;;;;;3.63;1.23;;;13.90;94.40;;;;;;9163760;19;20415;-73
2023/10/29 03:15:23;;;;;;;7.40;1.45;;;14.00;94.40;;;;;;9164748;19;20475;-73
2023/10/29 03:18:35;;;;;;;5.15;1.40;;;13.90;94.50;;;;;;9162481;19;20471;-73
2023/10/29 03:21:42;;;;;;;2.70;1.20;;;14.00;94.20;;;;;;9162687;19;20090;-73
2023/10/29 03:24:48;;;;;;;2.33;1.10;;;13.90;94.40;;;;;;9161855;19;20013;-72
2023/10/29 03:28:02;;;;;;;2.42;1.33;;;14.00;94.60;;;;;;9162709;19;20040;-73
2023/10/29 03:31:13;;;;;;;6.97;1.00;;;14.00;94.50;;;;;;9159091;19;20018;-74
2023/10/29 03:34:21;;;;;;;2.80;1.27;;;14.00;94.60;;;;;;9162240;19;20687;-73
2023/10/29 03:37:27;;;;;;;4.15;1.30;;;14.00;94.60;;;;;;9161386;19;20046;-73
2023/10/29 03:40:35;;;;;;;2.03;1.10;;;14.10;94.50;;;;;;9158340;19;20037;-74
2023/10/29 03:43:43;;;;;;;4.55;1.17;;;14.10;94.40;;;;;;9164526;19;20022;-73
2023/10/29 03:46:53;;;;;;;1.85;1.00;;;14.10;94.40;;;;;;9161562;19;20018;-73
2023/10/29 03:49:58;;;;;;;2.45;1.00;;;14.10;94.30;;;;;;9160173;19;20502;-73
2023/10/29 03:53:06;;;;;;;4.95;1.38;;;14.10;94.30;;;;;;9162299;19;20010;-72
2023/10/29 03:56:11;;;;;;;3.97;0.80;;;14.10;94.60;;;;;;9160390;19;20018;-73
2023/10/29 03:59:22;;;;;;;2.97;0.90;;;14.10;94.40;;;;;;9162404;19;20089;-72
2023/10/29 04:02:27;;;;;;;5.00;1.10;;;14.20;94.10;;;;;;9162964;19;20025;-72
2023/10/29 04:05:37;;;;;;;2.95;0.88;;;14.20;94.10;;;;;;9158138;19;20018;-73
2023/10/29 04:08:43;;;;;;;3.10;0.90;;;14.20;94.00;;;;;;9159424;19;20018;-72
2023/10/29 04:11:50;;;;;;;2.45;1.55;;;14.20;94.00;;;;;;9160016;19;20091;-73
2023/10/29 04:14:58;;;;;;;4.28;0.93;;;14.20;93.90;;;;;;9159922;19;20015;-73
2023/10/29 04:18:06;;;;;;;2.08;1.00;;;14.30;93.90;;;;;;9160221;19;20043;-72
2023/10/29 04:21:11;;;;;;;2.58;1.15;;;14.20;93.90;;;;;;9159922;19;20022;-73
2023/10/29 04:24:19;;;;;;;3.45;0.80;;;14.30;94.00;;;;;;9161815;19;20032;-72
2023/10/29 04:27:25;;;;;;;1.38;0.70;;;14.40;93.90;;;;;;9161705;19;20010;-73
2023/10/29 04:30:35;;;;;;;2.88;1.00;;;14.30;93.80;;;;;;9155510;19;20007;-73
2023/10/29 04:33:41;;;;;;;2.33;1.00;;;14.40;93.80;;;;;;9162569;19;20019;-72
2023/10/29 04:36:52;;;;;;;1.80;0.88;;;14.40;93.90;;;;;;9160194;19;20022;-72
2023/10/29 04:39:58;;;;;;;2.70;0.80;;;14.30;94.00;;;;;;9159907;19;20778;-72
2023/10/29 04:43:05;;;;;;;4.75;0.85;;;14.40;94.00;;;;;;9159524;19;20036;-72
2023/10/29 04:46:13;;;;;;;2.38;0.82;;;14.40;94.10;;;;;;9158532;19;20407;-74
2023/10/29 04:49:21;;;;;;;1.30;0.80;;;14.40;93.90;;;;;;9158321;19;20020;-74
2023/10/29 04:52:26;;;;;;;3.83;0.70;;;14.30;93.80;;;;;;9160286;19;20006;-72
2023/10/29 04:55:34;;;;;;;2.72;0.60;;;14.40;94.00;;;;;;9160330;19;20073;-74
2023/10/29 04:58:39;;;;;;;0.85;0.40;;;14.40;93.80;;;;;;9162121;19;20427;-73
2023/10/29 05:01:50;;;;;;;3.58;0.90;;;14.40;93.90;;;;;;9159362;19;20010;-72
2023/10/29 05:04:56;;;;;;;3.35;0.85;;;14.50;93.90;;;;;;9160788;19;20022;-73
2023/10/29 05:08:05;;;;;;;2.38;0.88;;;14.40;93.80;;;;;;9158796;19;20015;-72
2023/10/29 05:11:10;;;;;;;1.65;0.60;;;14.40;93.90;;;;;;9159672;19;20621;-72
2023/10/29 05:14:17;;;;;;;3.58;1.00;;;14.40;93.80;;;;;;9158786;19;20022;-73
2023/10/29 05:17:25;;;;;;;2.53;0.65;;;14.40;93.80;;;;;;9157546;19;20014;-73
2023/10/29 05:20:34;;;;;;;4.90;0.82;;;14.40;93.80;;;;;;9157275;19;20022;-73
2023/10/29 05:23:41;;;;;;;3.03;0.75;;;14.40;94.00;;;;;;9159716;19;20020;-74
2023/10/29 05:26:48;;;;;;;1.17;0.55;;;14.40;93.80;;;;;;9157124;19;20014;-73
2023/10/29 05:29:54;;;;;;;0.90;0.50;;;14.50;93.90;;;;;;9153720;19;20021;-73
2023/10/29 05:33:04;;;;;;;0.90;0.55;;;14.30;94.00;;;;;;9159642;19;20025;-74
2023/10/29 05:36:10;;;;;;;2.58;0.52;;;14.30;93.70;;;;;;9160124;19;20018;-74
2023/10/29 05:39:18;;;;;;;4.65;0.75;;;14.40;93.80;;;;;;9158765;19;20018;-74
2023/10/29 05:42:23;;;;;;;2.85;0.98;;;14.30;93.80;;;;;;9159248;19;20387;-72
2023/10/29 05:45:31;;;;;;;2.83;0.80;;;14.30;93.80;;;;;;9157957;19;20115;-72
2023/10/29 05:48:39;;;;;;;3.42;0.63;;;14.30;93.90;;;;;;9158159;19;20011;-72
2023/10/29 05:51:47;;;;;;;1.52;0.63;;;14.30;93.80;;;;;;9158745;19;20022;-72
2023/10/29 05:54:55;;;;;;;2.38;0.75;;;14.30;94.10;;;;;;9157234;19;20056;-73
2023/10/29 05:58:03;;;;;;;1.58;0.68;;;14.30;94.10;;;;;;9157538;19;20030;-74
2023/10/29 06:01:12;;;;;;;2.05;0.65;;;14.30;94.00;;;;;;9154992;19;20015;-75
2023/10/29 06:04:22;;;;;;;4.15;0.98;;;14.30;94.20;;;;;;9166926;19;20010;-75
2023/10/29 06:07:29;;;;;;;2.78;0.88;;;14.30;94.00;;;;;;9166515;19;20026;-74
2023/10/29 06:10:37;;;;;;;1.23;0.63;;;14.30;94.10;;;;;;9164448;19;20470;-75
2023/10/29 06:13:45;;;;;;;5.25;1.13;;;14.40;94.00;;;;;;9166869;19;20027;-77
2023/10/29 06:16:58;;;;;;;6.72;1.13;;;14.30;94.10;;;;;;9165918;19;20025;-76
2023/10/29 06:20:29;;;;;;;7.18;1.15;;;14.30;93.90;;;;;;9164992;19;20018;-75
2023/10/29 06:23:36;;;;;;;3.22;0.93;;;14.30;94.00;;;;;;9165876;19;20033;-78
2023/10/29 06:26:43;;;;;;;1.90;0.80;;;14.20;93.90;;;;;;9170264;19;20026;-77
2023/10/29 06:29:50;;;;;;;4.15;1.38;;;14.20;94.00;;;;;;9162705;19;20013;-76
2023/10/29 06:32:57;;;;;;;2.13;1.33;;;14.30;94.10;;;;;;9167011;19;20014;-76
2023/10/29 06:36:08;;;;;;;4.35;1.85;;;14.20;94.20;;;;;;9166634;19;20025;-77
2023/10/29 06:39:15;;;;;;;1.98;1.00;;;14.20;94.30;;;;;;9162985;19;20048;-78
2023/10/29 06:42:28;;;;;;;2.92;0.80;;;14.20;94.00;;;;;;9161522;19;20017;-78
2023/10/29 06:45:34;;;;;;;7.38;1.65;;;14.20;94.10;;;;;;9163831;19;20010;-75
2023/10/29 06:48:43;;;;;;;3.40;1.05;;;14.10;94.00;;;;;;9164840;19;20609;-76
2023/10/29 06:51:52;;;;;;;4.93;1.00;;;14.20;94.00;;;;;;9164063;19;20372;-76
2023/10/29 06:55:02;;;;;;;1.23;0.60;;;14.10;94.00;;;;;;9163789;19;20022;-77
2023/10/29 06:58:08;;;;;;;3.53;0.73;;;14.10;94.00;;;;;;9167183;19;20014;-76
2023/10/29 07:01:15;;;;;;;3.92;0.80;;;14.10;94.10;;;;;;9164093;19;20019;-76
2023/10/29 07:04:21;;;;;;;2.72;0.88;;;14.10;94.10;;;;;;9164704;19;20025;-76
2023/10/29 07:07:35;;;;;;;5.45;2.03;;;14.10;94.00;;;;;;9164661;19;20370;-75
2023/10/29 07:10:41;;;;;;;3.40;0.68;;;14.10;94.10;;;;;;9161851;19;20542;-75
2023/10/29 07:13:48;;;;;;;4.00;0.55;;;14.00;94.00;;;;;;9164624;19;21513;-74
2023/10/29 07:16:54;;;;;;;5.90;0.90;;;14.00;93.90;;;;;;9162163;19;20014;-76
2023/10/29 07:20:01;;;;;;;2.05;0.30;;;13.90;94.10;;;;;;9160267;19;20010;-76
2023/10/29 07:23:10;;;;;;;3.20;0.60;;;13.90;93.80;;;;;;9165277;19;20094;-75
2023/10/29 07:26:19;;;;;;;1.35;0.63;;;13.90;94.00;;;;;;9164968;19;20030;-74
2023/10/29 07:29:24;;;;;;;3.80;0.73;;;13.80;93.80;;;;;;9160336;19;20030;-75
2023/10/29 07:32:33;;;;;;;7.32;1.00;;;13.90;93.70;;;;;;9164871;19;20013;-75
2023/10/29 07:35:42;;;;;;;6.43;0.75;;;13.80;93.80;;;;;;9163901;19;20485;-74
2023/10/29 07:38:52;;;;;;;3.03;0.65;;;13.80;93.80;;;;;;9163501;19;20022;-75
2023/10/29 07:41:58;;;;;;;2.42;1.20;;;13.80;94.00;;;;;;9161182;19;20098;-76
2023/10/29 07:45:07;;;;;;;4.60;0.70;;;13.70;93.70;;;;;;9166278;19;20014;-74
2023/10/29 07:48:13;;;;;;;7.13;0.68;;;13.70;93.80;;;;;;9166459;19;20060;-75
2023/10/29 07:51:21;;;;;;;2.08;0.60;;;13.80;93.80;;;;;;9164154;19;20006;-75
2023/10/29 07:54:29;;;;;;;4.00;0.60;;;13.70;94.00;;;;;;9165354;19;20018;-76
2023/10/29 07:57:38;;;;;;;7.60;0.75;;;13.80;93.80;;;;;;9166178;19;20103;-74
2023/10/29 08:00:43;;;;;;;3.17;0.68;;;13.80;94.00;;;;;;9165624;19;20018;-75
2023/10/29 08:03:51;;;;;;;5.20;1.17;;;13.80;94.00;;;;;;9163152;19;20007;-74
2023/10/29 08:06:56;;;;;;;11.05;1.00;;;13.90;93.90;;;;;;9163553;19;20597;-73
2023/10/29 08:10:08;;;;;;;4.40;1.60;;;13.80;93.90;;;;;;9163789;19;20010;-75
2023/10/29 08:13:14;;;;;;;6.05;1.00;;;13.90;93.90;;;;;;9161781;19;20034;-75
2023/10/29 08:16:25;;;;;;;4.38;0.63;;;14.00;94.00;;;;;;9158451;19;20055;-75
2023/10/29 08:19:30;;;;;;;5.97;1.10;;;14.00;94.30;;;;;;9160785;19;20019;-74
2023/10/29 08:22:38;;;;;;;6.30;1.25;;;14.00;93.90;;;;;;9159958;19;20014;-75
2023/10/29 08:25:46;;;;;;;3.65;1.05;;;14.00;94.10;;;;;;9161270;19;20030;-74
2023/10/29 08:28:53;;;;;;;11.60;1.27;;;14.00;93.80;;;;;;9153936;19;20014;-74
2023/10/29 08:31:59;;;;;;;10.50;1.60;;;14.00;93.80;;;;;;9152744;19;20439;-74
2023/10/29 08:35:09;;;;;;;8.48;0.90;;;14.50;93.90;;;;;;9160092;19;20025;-74
2023/10/29 08:38:15;;;;;;;6.85;0.82;;;14.00;93.70;;;;;;9157219;19;20045;-74
2023/10/29 08:41:25;;;;;;;6.63;0.90;;;14.10;93.90;;;;;;9157294;19;20011;-75
2023/10/29 08:44:30;;;;;;;7.00;0.82;;;14.20;94.00;;;;;;9154434;19;20021;-74
2023/10/29 08:47:38;;;;;;;5.07;1.45;;;14.20;94.10;;;;;;9157957;19;20021;-73
2023/10/29 08:50:44;;;;;;;8.23;1.40;;;14.20;94.00;;;;;;9157985;19;20043;-74
2023/10/29 08:53:52;;;;;;;4.25;1.40;;;14.20;94.00;;;;;;9160131;19;20030;-74
2023/10/29 08:57:00;;;;;;;8.68;1.10;;;14.30;94.20;;;;;;9158420;19;20015;-70
2023/10/29 09:00:14;;;;;;;8.88;1.23;;;14.40;94.10;;;;;;9159513;19;20022;-75
2023/10/29 09:03:22;;;;;;;9.40;1.42;;;14.40;94.00;;;;;;9161207;19;20018;-76
2023/10/29 09:06:30;;;;;;;5.35;1.83;;;14.30;94.00;;;;;;9162529;19;20018;-76
2023/10/29 09:09:40;;;;;;;6.38;2.67;;;14.50;94.00;;;;;;9163029;19;20161;-76
2023/10/29 09:12:55;;;;;;;5.80;0.93;;;14.50;94.00;;;;;;9159929;19;20014;-74
2023/10/29 09:16:00;;;;;;;9.20;1.40;;;14.60;94.00;;;;;;9161600;19;20018;-76
2023/10/29 09:19:08;;;;;;;7.18;2.20;;;14.70;94.10;;;;;;9158614;19;20391;-75
2023/10/29 09:22:23;;;;;;;8.27;1.35;;;14.70;94.10;;;;;;9158242;19;20015;-74
2023/10/29 09:25:30;;;;;;;9.40;1.80;;;14.70;94.10;;;;;;9159616;19;20017;-75
2023/10/29 09:28:38;;;;;;;6.70;1.27;;;14.70;94.20;;;;;;9158960;19;20019;-76
2023/10/29 09:31:46;;;;;;;9.45;1.83;;;14.80;94.30;;;;;;9157703;19;20025;-75
2023/10/29 09:34:52;;;;;;;7.78;1.25;;;14.80;94.60;;;;;;9160039;19;20038;-76
2023/10/29 09:38:00;;;;;;;5.10;1.10;;;15.00;94.90;;;;;;9166475;19;20078;-76
2023/10/29 09:41:07;;;;;;;10.20;2.20;;;15.00;95.80;;;;;;9169465;19;20018;-76
2023/10/29 09:44:19;;;;;;;6.45;1.20;;;15.10;95.60;;;;;;9165433;19;20882;-74
2023/10/29 09:47:28;;;;;;;7.70;1.40;;;15.20;95.90;;;;;;9170990;19;20033;-74
2023/10/29 09:50:36;;;;;;;3.30;1.10;;;15.20;92.30;;;;;;9169035;19;20022;-74
2023/10/29 09:53:42;;;;;;;7.72;1.25;;;15.30;92.30;;;;;;9170000;19;20017;-75
2023/10/29 09:56:50;;;;;;;9.57;1.65;;;15.40;92.30;;;;;;9165276;19;20029;-76
2023/10/29 10:00:02;;;;;;;5.00;1.15;;;15.30;92.00;;;;;;9169995;19;20793;-75
2023/10/29 10:03:19;;;;;;;9.00;1.92;;;15.40;91.80;;;;;;9168785;19;20492;-75
2023/10/29 10:06:28;;;;;;;20.05;2.80;;;15.50;91.90;;;;;;9167304;19;20015;-75
2023/10/29 10:09:53;;;;;;;11.50;1.23;;;15.60;91.60;;;;;;9171128;19;20022;-75
2023/10/29 10:12:58;;;;;;;9.52;1.65;;;15.60;91.30;;;;;;9170515;19;20106;-74
2023/10/29 10:16:12;;;;;;;8.40;2.58;;;15.70;91.90;;;;;;9168999;19;20018;-75
2023/10/29 10:19:21;;;;;;;10.35;1.33;;;15.70;91.50;;;;;;9168037;19;20808;-76
2023/10/29 10:22:37;;;;;;;6.50;1.27;;;15.80;91.60;;;;;;9165677;19;20017;-76
2023/10/29 10:25:43;;;;;;;;;;;15.90;91.40;;;;;;9170458;19;20468;-74
2023/10/29 10:28:55;;;;;;;11.45;1.83;;;16.00;91.60;;;;;;9168279;19;19915;-75
2023/10/29 10:32:09;;;;;;;5.68;1.08;;;16.00;91.50;;;;;;9162333;19;20021;-75
2023/10/29 10:35:17;;;;;;;10.65;1.85;;;16.10;91.50;;;;;;9167163;19;20025;-75
2023/10/29 10:38:23;;;;;;;6.65;1.33;;;16.10;91.20;;;;;;9165922;19;20019;-76
2023/10/29 10:41:41;;;;;;;5.43;0.95;;;16.20;91.30;;;;;;9169091;19;20022;-74
2023/10/29 10:44:48;;;;;;;5.13;1.40;;;16.30;91.10;;;;;;9164103;19;20014;-75
2023/10/29 10:48:01;;;;;;;7.50;1.27;;;16.40;91.30;;;;;;9165590;19;20499;-75
2023/10/29 10:51:13;;;;;;;9.13;1.77;;;16.50;91.10;;;;;;9168341;19;20006;-76
2023/10/29 10:54:21;;;;;;;;;;;16.40;90.80;;;;;;9169614;19;20661;-74
2023/10/29 10:57:32;;;;;;;6.55;1.00;;;16.50;91.00;;;;;;9168309;19;19937;-75
2023/10/29 11:00:39;;;;;;;10.05;1.48;;;16.40;91.00;;;;;;9168370;19;20014;-75
2023/10/29 11:03:48;;;;;;;7.82;1.30;;;16.40;90.90;;;;;;9165931;19;20023;-76
2023/10/29 11:06:57;;;;;;;4.85;1.10;;;16.40;90.70;;;;;;9168891;19;20018;-74
2023/10/29 11:10:04;;;;;;;5.78;1.20;;;16.40;90.70;;;;;;9166712;19;20022;-74
2023/10/29 11:13:22;;;;;;;7.05;1.10;;;16.30;90.60;;;;;;9168238;19;20022;-74
2023/10/29 11:16:28;;;;;;;6.97;1.45;;;16.20;90.40;;;;;;9167824;19;20590;-74
2023/10/29 11:19:47;;;;;;;10.85;1.58;;;16.30;90.50;;;;;;9165136;19;20014;-75
2023/10/29 11:22:54;;;;;;;8.32;0.95;;;16.10;90.40;;;;;;9166932;19;20037;-75
2023/10/29 11:26:20;;;;;;;5.78;1.25;;;16.20;90.50;;;;;;9167065;19;20049;-75
2023/10/29 11:29:44;;;;;;;6.07;1.48;;;16.20;90.30;;;;;;9161402;19;20029;-74
2023/10/29 11:33:25;;;;;;;8.48;2.05;;;16.20;90.50;;;;;;9166313;19;20022;-74
2023/10/29 11:36:35;;;;;;;9.35;1.08;;;16.20;90.00;;;;;;9166756;19;20498;-74
2023/10/29 11:39:43;;;;;;;8.38;1.60;;;16.20;90.40;;;;;;9165923;19;20017;-73
2023/10/29 11:42:50;;;;;;;12.57;2.38;;;16.20;90.50;;;;;;9166086;19;20011;-74
2023/10/29 11:46:00;;;;;;;9.38;2.60;;;16.20;90.30;;;;;;9166938;19;20506;-75
2023/10/29 11:49:06;;;;;;;9.32;1.38;;;16.30;90.40;;;;;;9165795;19;20419;-74
2023/10/29 11:52:16;;;;;;;8.55;1.77;;;16.20;90.30;;;;;;9165803;19;20373;-74
2023/10/29 11:55:25;;;;;;;6.50;1.25;;;16.30;90.20;;;;;;9163900;19;20014;-74
2023/10/29 11:58:34;;;;;;;9.43;1.17;;;16.30;90.30;;;;;;9163867;19;20023;-74
2023/10/29 12:01:41;;;;;;;8.02;1.48;;;16.20;90.40;;;;;;9161872;19;20051;-74
2023/10/29 12:04:48;;;;;;;13.07;1.55;;;16.20;90.30;;;;;;9161082;19;20061;-74
2023/10/29 12:08:03;;;;;;;6.78;1.20;;;16.10;90.30;;;;;;9163746;19;20018;-74
2023/10/29 12:11:13;;;;;;;8.95;1.02;;;16.20;90.10;;;;;;9163517;19;20487;-74
2023/10/29 12:14:36;;;;;;;8.45;1.35;;;16.40;90.50;;;;;;9163741;19;20010;-73
2023/10/29 12:17:47;;;;;;;14.60;1.20;;;16.10;90.20;;;;;;9163137;19;20026;-74
2023/10/29 12:21:04;;;;;;;7.07;1.20;;;16.10;90.10;;;;;;9165123;19;20025;-74
2023/10/29 12:24:14;;;;;;;9.93;1.08;;;16.10;90.40;;;;;;9161733;19;20589;-73
2023/10/29 12:27:22;;;;;;;6.30;1.25;;;16.00;90.10;;;;;;9165110;19;20018;-72
2023/10/29 12:30:37;;;;;;;11.30;1.85;;;16.00;90.10;;;;;;9160169;19;20476;-73
2023/10/29 12:33:43;;;;;;;6.57;1.20;;;16.00;90.10;;;;;;9163134;19;20021;-75
2023/10/29 12:36:51;;;;;;;7.43;1.67;;;16.00;90.30;;;;;;9162491;19;20010;-73
2023/10/29 12:40:03;;;;;;;13.38;1.42;;;16.10;90.30;;;;;;9162862;19;20035;-74
2023/10/29 12:43:10;;;;;;;12.75;2.00;;;16.10;90.30;;;;;;9164505;19;20025;-73
2023/10/29 12:46:18;;;;;;;3.13;1.05;;;16.10;90.10;;;;;;9161745;19;20037;-73
2023/10/29 12:49:33;;;;;;;10.07;2.15;;;16.00;90.20;;;;;;9162150;19;20010;-74
2023/10/29 12:52:45;;;;;;;5.20;1.38;;;16.00;90.30;;;;;;9161519;19;20011;-74
2023/10/29 12:55:56;;;;;;;9.20;1.58;;;15.90;90.10;;;;;;9161333;19;20055;-74
2023/10/29 12:59:03;;;;;;;8.52;1.60;;;16.00;90.30;;;;;;9162076;19;20056;-73
2023/10/29 13:02:10;;;;;;;9.00;1.35;;;15.90;90.30;;;;;;9162096;19;20464;-73
2023/10/29 13:05:15;;;;;;;8.27;2.50;;;16.10;90.30;;;;;;9159818;19;20062;-73
2023/10/29 13:08:24;;;;;;;15.55;1.77;;;15.90;90.30;;;;;;9161849;19;20368;-73
2023/10/29 13:11:32;;;;;;;12.93;2.03;;;16.00;90.00;;;;;;9161647;19;20432;-74
2023/10/29 13:14:40;;;;;;;7.28;1.85;;;16.00;90.00;;;;;;9162963;19;20014;-74
2023/10/29 13:17:46;;;;;;;14.73;1.83;;;16.10;90.50;;;;;;9162552;19;20021;-74
2023/10/29 13:21:02;;;;;;;8.43;1.50;;;16.00;90.20;;;;;;9160581;19;20038;-74
2023/10/29 13:24:08;;;;;;;;;;;16.00;89.90;;;;;;9157136;19;20027;-75
2023/10/29 13:27:18;;;;;;;6.65;1.20;;;15.90;90.00;;;;;;9162364;19;19930;-73
2023/10/29 13:30:25;;;;;;;10.90;1.52;;;15.90;90.30;;;;;;9157771;19;20026;-74
2023/10/29 13:33:32;;;;;;;3.45;1.20;;;15.90;90.00;;;;;;9159955;19;20006;-74
2023/10/29 13:36:39;;;;;;;7.50;1.67;;;16.00;90.30;;;;;;9159752;19;20046;-75
2023/10/29 13:39:46;;;;;;;6.45;1.30;;;16.00;90.40;;;;;;9162725;19;20015;-76
2023/10/29 13:42:54;;;;;;;3.75;1.42;;;15.90;90.00;;;;;;9160385;19;20014;-73
2023/10/29 13:46:02;;;;;;;10.18;1.75;;;15.90;90.10;;;;;;9156874;19;20025;-74
2023/10/29 13:49:10;;;;;;;4.57;0.98;;;15.90;90.20;;;;;;9163448;19;20022;-75
2023/10/29 13:52:18;;;;;;;6.38;1.38;;;15.80;90.00;;;;;;9160910;19;20032;-74
2023/10/29 13:55:24;;;;;;;4.05;1.23;;;15.80;90.00;;;;;;9159825;19;20413;-72
2023/10/29 13:58:34;;;;;;;9.73;1.20;;;15.90;90.10;;;;;;9162492;19;20018;-73
2023/10/29 14:01:39;;;;;;;7.18;1.38;;;15.80;90.00;;;;;;9160737;19;20010;-74
2023/10/29 14:04:47;;;;;;;6.65;1.17;;;15.80;90.10;;;;;;9159224;19;20255;-73
2023/10/29 14:07:54;;;;;;;8.93;2.28;;;15.70;90.00;;;;;;9159025;19;20144;-73
2023/10/29 14:11:01;;;;;;;8.57;1.13;;;15.70;90.20;;;;;;9160296;19;20015;-73
2023/10/29 14:14:09;;;;;;;13.32;2.15;;;15.70;90.10;;;;;;9160292;19;20014;-73
2023/10/29 14:17:17;;;;;;;13.90;2.72;;;15.60;89.90;;;;;;9160554;19;20278;-75
2023/10/29 14:20:25;;;;;;;8.85;3.35;;;15.70;90.10;;;;;;9162843;19;20019;-73
2023/10/29 14:23:33;;;;;;;10.23;3.10;;;15.60;90.20;;;;;;9167621;19;20014;-74
2023/10/29 14:26:39;;;;;;;10.48;3.88;;;15.60;90.00;;;;;;9167439;19;20031;-73
2023/10/29 14:29:49;;;;;;;14.48;3.58;;;15.70;90.20;;;;;;9164148;19;20019;-74
2023/10/29 14:32:54;;;;;;;9.80;3.15;;;15.60;90.20;;;;;;9170087;19;20478;-72
2023/10/29 14:36:02;;;;;;;7.50;1.60;;;15.60;90.10;;;;;;9165980;19;20019;-74
2023/10/29 14:39:07;;;;;;;7.30;1.65;;;15.60;90.20;;;;;;9168587;19;20018;-76
2023/10/29 14:42:15;;;;;;;10.98;1.67;;;15.50;90.40;;;;;;9167140;19;20017;-74
2023/10/29 14:45:23;;;;;;;8.32;1.60;;;15.70;90.50;;;;;;9168602;19;20130;-78
2023/10/29 14:48:31;;;;;;;11.27;1.67;;;15.60;90.50;;;;;;9167152;19;20018;-76
2023/10/29 14:51:38;;;;;;;7.20;1.70;;;15.50;90.50;;;;;;9168874;19;20010;-76
2023/10/29 14:54:45;;;;;;;5.35;1.25;;;15.40;90.70;;;;;;9166744;19;20101;-76
2023/10/29 14:57:51;;;;;;;7.40;1.63;;;15.50;90.60;;;;;;9168772;19;20022;-76
2023/10/29 15:01:04;;;;;;;3.90;1.00;;;15.40;90.80;;;;;;9169033;19;20018;-76
2023/10/29 15:04:10;;;;;;;6.50;1.48;;;15.50;90.90;;;;;;9163874;19;20022;-76
2023/10/29 15:07:18;;;;;;;3.60;1.35;;;15.40;91.30;;;;;;9163907;19;20014;-76
2023/10/29 15:10:23;;;;;;;6.70;1.10;;;15.20;85.10;;;;;;9168286;19;20025;-76
2023/10/29 15:13:33;;;;;;;5.28;1.30;;;15.20;83.20;;;;;;9166374;19;20026;-76
2023/10/29 15:16:53;;;;;;;8.07;2.00;;;15.10;83.20;;;;;;9168352;19;20010;-76
2023/10/29 15:20:03;;;;;;;6.57;2.28;;;15.10;83.20;;;;;;9165536;19;20053;-76
2023/10/29 15:23:08;;;;;;;3.47;1.38;;;15.10;84.10;;;;;;9166749;19;20376;-76
2023/10/29 15:26:20;;;;;;;6.45;1.10;;;15.10;83.40;;;;;;9163967;19;20010;-76
2023/10/29 15:29:26;;;;;;;7.72;1.40;;;15.10;83.40;;;;;;9160749;19;20390;-74
2023/10/29 15:32:36;;;;;;;8.60;1.50;;;15.00;83.40;;;;;;9166337;19;20338;-79
2023/10/29 15:35:42;;;;;;;5.57;1.27;;;15.00;83.40;;;;;;9167038;19;20025;-76
2023/10/29 15:38:49;;;;;;;5.00;1.17;;;15.00;84.10;;;;;;9166839;19;20025;-75
2023/10/29 15:41:59;;;;;;;2.65;1.40;;;14.90;83.60;;;;;;9167195;19;20018;-77
2023/10/29 15:45:08;;;;;;;9.18;1.40;;;14.90;83.60;;;;;;9164109;19;20768;-77
2023/10/29 15:48:16;;;;;;;9.18;2.40;;;14.90;83.60;;;;;;9165944;19;20448;-76
2023/10/29 15:51:25;;;;;;;7.32;2.65;;;14.90;83.70;;;;;;9164682;19;20027;-77
2023/10/29 15:54:32;;;;;;;7.40;1.98;;;14.80;83.60;;;;;;9164544;19;20018;-77
2023/10/29 15:57:39;;;;;;;16.55;2.22;;;14.80;83.60;;;;;;9165647;19;20017;-76
2023/10/29 16:00:48;;;;;;;10.95;2.10;;;14.70;83.60;;;;;;9162811;19;20029;-76
2023/10/29 16:04:06;;;;;;;4.95;2.30;;;15.60;84.20;;;;;;9163123;19;20017;-77
2023/10/29 16:07:12;;;;;;;9.20;2.13;;;14.70;84.00;;;;;;9164274;19;20027;-77
2023/10/29 16:10:20;;;;;;;5.07;1.27;;;14.60;83.90;;;;;;9165796;19;20025;-77
2023/10/29 16:13:26;;;;;;;11.48;2.35;;;14.50;83.90;;;;;;9163089;19;20018;-77
2023/10/29 16:16:34;;;;;;;10.18;2.00;;;14.60;84.10;;;;;;9164978;19;20017;-76
2023/10/29 16:19:44;;;;;;;5.10;2.25;;;14.60;86.90;;;;;;9163729;19;20355;-78
2023/10/29 16:22:51;;;;;;;5.30;1.50;;;14.50;85.10;;;;;;9162600;19;20410;-77